sensor_id;sensor_type;location;lat;lon;timestamp;pressure;altitude;pressure_sealevel;temperature;humidity
26087;BME280;13851;43.434;28.338;2022-09-09T00:00:44;100163.59;;;21.62;100.00
26087;BME280;13851;43.434;28.338;2022-09-09T00:03:16;100159.59;;;21.58;100.00
26087;BME280;13851;43.434;28.338;2022-09-09T00:06:21;100046.97;;;20.90;100.00
26087;BME280;13851;43.434;28.338;2022-09-09T00:11:26;100165.16;;;21.58;100.00
26087;BME280;13851;43.434;28.338;2022-09-09T00:13:54;100146.53;;;21.47;100.00
26087;BME280;13851;43.434;28.338;2022-09-09T00:16:25;100182.00;;;21.63;100.00
26087;BME280;13851;43.434;28.338;2022-09-09T00:22:02;100197.63;;;21.64;100.00
26087;BME280;13851;43.434;28.338;2022-09-09T00:24:38;100090.97;;;21.17;100.00
26087;BME280;13851;43.434;28.338;2022-09-09T00:27:21;100176.31;;;21.58;100.00
26087;BME280;13851;43.434;28.338;2022-09-09T00:29:56;100145.56;;;21.53;100.00
26087;BME280;13851;43.434;28.338;2022-09-09T00:32:28;100151.34;;;21.63;100.00
26087;BME280;13851;43.434;28.338;2022-09-09T00:34:58;100156.66;;;21.65;100.00
26087;BME280;13851;43.434;28.338;2022-09-09T00:37:26;100155.22;;;21.62;100.00
26087;BME280;13851;43.434;28.338;2022-09-09T00:39:56;100138.97;;;21.59;100.00
26087;BME280;13851;43.434;28.338;2022-09-09T00:42:41;100150.84;;;21.66;100.00
26087;BME280;13851;43.434;28.338;2022-09-09T00:47:52;100145.75;;;21.63;100.00
26087;BME280;13851;43.434;28.338;2022-09-09T00:50:33;100142.38;;;21.61;100.00
26087;BME280;13851;43.434;28.338;2022-09-09T00:58:36;100148.44;;;21.58;100.00
26087;BME280;13851;43.434;28.338;2022-09-09T01:01:09;100118.66;;;21.47;100.00
26087;BME280;13851;43.434;28.338;2022-09-09T01:04:04;100136.91;;;21.66;100.00
26087;BME280;13851;43.434;28.338;2022-09-09T01:06:37;100120.81;;;21.57;100.00
26087;BME280;13851;43.434;28.338;2022-09-09T01:09:16;100123.56;;;21.68;100.00
26087;BME280;13851;43.434;28.338;2022-09-09T01:12:16;100099.16;;;21.47;100.00
26087;BME280;13851;43.434;28.338;2022-09-09T01:14:52;100104.16;;;21.45;100.00
26087;BME280;13851;43.434;28.338;2022-09-09T01:17:36;100119.22;;;21.61;100.00
26087;BME280;13851;43.434;28.338;2022-09-09T01:20:26;100126.50;;;21.62;100.00
26087;BME280;13851;43.434;28.338;2022-09-09T01:26:24;100127.34;;;21.62;100.00
26087;BME280;13851;43.434;28.338;2022-09-09T01:28:49;100116.13;;;21.45;100.00
26087;BME280;13851;43.434;28.338;2022-09-09T01:31:34;100126.03;;;21.53;100.00
26087;BME280;13851;43.434;28.338;2022-09-09T01:34:02;100127.50;;;21.56;100.00
26087;BME280;13851;43.434;28.338;2022-09-09T01:36:48;99948.91;;;20.48;100.00
26087;BME280;13851;43.434;28.338;2022-09-09T01:39:17;100149.38;;;21.64;100.00
26087;BME280;13851;43.434;28.338;2022-09-09T01:41:43;100156.06;;;21.63;100.00
26087;BME280;13851;43.434;28.338;2022-09-09T01:44:08;100092.28;;;21.38;100.00
26087;BME280;13851;43.434;28.338;2022-09-09T01:46:35;100139.59;;;21.61;100.00
26087;BME280;13851;43.434;28.338;2022-09-09T01:49:02;100135.81;;;21.67;100.00
26087;BME280;13851;43.434;28.338;2022-09-09T01:51:29;100153.38;;;21.68;100.00
26087;BME280;13851;43.434;28.338;2022-09-09T01:53:55;99941.97;;;20.50;100.00
26087;BME280;13851;43.434;28.338;2022-09-09T01:59:15;100138.00;;;21.65;100.00
26087;BME280;13851;43.434;28.338;2022-09-09T02:04:50;99924.56;;;20.32;100.00
26087;BME280;13851;43.434;28.338;2022-09-09T02:10:17;100137.09;;;21.48;100.00
26087;BME280;13851;43.434;28.338;2022-09-09T02:12:45;100115.66;;;21.37;100.00
26087;BME280;13851;43.434;28.338;2022-09-09T02:15:18;100120.72;;;21.51;100.00
26087;BME280;13851;43.434;28.338;2022-09-09T02:17:46;100124.34;;;21.52;100.00
26087;BME280;13851;43.434;28.338;2022-09-09T02:20:14;100133.75;;;21.63;100.00
26087;BME280;13851;43.434;28.338;2022-09-09T02:22:43;100130.88;;;21.58;100.00
26087;BME280;13851;43.434;28.338;2022-09-09T02:25:12;100119.34;;;21.54;100.00
26087;BME280;13851;43.434;28.338;2022-09-09T02:27:40;100129.53;;;21.60;100.00
26087;BME280;13851;43.434;28.338;2022-09-09T02:30:09;100114.81;;;21.36;100.00
26087;BME280;13851;43.434;28.338;2022-09-09T02:32:35;100119.31;;;21.37;100.00
26087;BME280;13851;43.434;28.338;2022-09-09T02:35:10;100114.22;;;21.34;100.00
26087;BME280;13851;43.434;28.338;2022-09-09T02:37:42;100128.03;;;21.41;100.00
26087;BME280;13851;43.434;28.338;2022-09-09T02:40:11;100144.22;;;21.56;100.00
26087;BME280;13851;43.434;28.338;2022-09-09T02:42:44;100136.69;;;21.56;100.00
26087;BME280;13851;43.434;28.338;2022-09-09T02:45:12;100126.44;;;21.45;100.00
26087;BME280;13851;43.434;28.338;2022-09-09T02:50:25;100145.56;;;21.53;100.00
26087;BME280;13851;43.434;28.338;2022-09-09T02:58:04;100108.88;;;21.33;100.00
26087;BME280;13851;43.434;28.338;2022-09-09T03:00:31;100147.53;;;21.41;100.00
26087;BME280;13851;43.434;28.338;2022-09-09T03:02:58;100146.34;;;21.37;100.00
26087;BME280;13851;43.434;28.338;2022-09-09T03:05:24;99965.66;;;20.41;100.00
26087;BME280;13851;43.434;28.338;2022-09-09T03:07:50;100152.22;;;21.52;100.00
26087;BME280;13851;43.434;28.338;2022-09-09T03:10:16;100152.72;;;21.49;100.00
26087;BME280;13851;43.434;28.338;2022-09-09T03:12:42;100139.41;;;21.39;100.00
26087;BME280;13851;43.434;28.338;2022-09-09T03:15:08;100133.94;;;21.44;100.00
26087;BME280;13851;43.434;28.338;2022-09-09T03:17:35;100155.16;;;21.45;100.00
26087;BME280;13851;43.434;28.338;2022-09-09T03:20:05;100152.59;;;21.44;100.00
26087;BME280;13851;43.434;28.338;2022-09-09T03:22:31;100145.44;;;21.48;100.00
26087;BME280;13851;43.434;28.338;2022-09-09T03:25:26;100151.63;;;21.50;100.00
26087;BME280;13851;43.434;28.338;2022-09-09T03:27:59;100131.19;;;21.33;100.00
26087;BME280;13851;43.434;28.338;2022-09-09T03:30:26;100120.16;;;21.26;100.00
26087;BME280;13851;43.434;28.338;2022-09-09T03:32:52;100138.97;;;21.31;100.00
26087;BME280;13851;43.434;28.338;2022-09-09T03:35:18;100139.53;;;21.33;100.00
26087;BME280;13851;43.434;28.338;2022-09-09T03:37:44;100141.13;;;21.40;100.00
26087;BME280;13851;43.434;28.338;2022-09-09T03:40:11;100110.09;;;21.25;100.00
26087;BME280;13851;43.434;28.338;2022-09-09T03:42:37;100159.38;;;21.48;100.00
26087;BME280;13851;43.434;28.338;2022-09-09T03:45:05;100129.75;;;21.30;100.00
26087;BME280;13851;43.434;28.338;2022-09-09T03:47:31;100161.91;;;21.49;100.00
26087;BME280;13851;43.434;28.338;2022-09-09T03:49:56;100119.91;;;21.27;100.00
26087;BME280;13851;43.434;28.338;2022-09-09T03:52:22;100141.44;;;21.44;100.00
26087;BME280;13851;43.434;28.338;2022-09-09T03:54:50;100113.03;;;21.30;100.00
26087;BME280;13851;43.434;28.338;2022-09-09T03:57:16;100159.13;;;21.49;100.00
26087;BME280;13851;43.434;28.338;2022-09-09T03:59:43;100103.91;;;21.23;100.00
26087;BME280;13851;43.434;28.338;2022-09-09T04:02:08;99898.09;;;20.06;100.00
26087;BME280;13851;43.434;28.338;2022-09-09T04:04:34;100143.16;;;21.45;100.00
26087;BME280;13851;43.434;28.338;2022-09-09T04:07:00;100147.75;;;21.51;100.00
26087;BME280;13851;43.434;28.338;2022-09-09T04:09:26;100149.44;;;21.52;100.00
26087;BME280;13851;43.434;28.338;2022-09-09T04:11:52;100148.34;;;21.53;100.00
26087;BME280;13851;43.434;28.338;2022-09-09T04:14:19;100157.06;;;21.57;100.00
26087;BME280;13851;43.434;28.338;2022-09-09T04:16:44;100103.19;;;21.27;100.00
26087;BME280;13851;43.434;28.338;2022-09-09T04:19:11;100153.66;;;21.54;100.00
26087;BME280;13851;43.434;28.338;2022-09-09T04:21:40;100152.81;;;21.54;100.00
26087;BME280;13851;43.434;28.338;2022-09-09T04:24:07;100146.16;;;21.55;100.00
26087;BME280;13851;43.434;28.338;2022-09-09T04:26:34;100164.59;;;21.56;100.00
26087;BME280;13851;43.434;28.338;2022-09-09T04:29:03;100155.22;;;21.62;100.00
26087;BME280;13851;43.434;28.338;2022-09-09T04:31:29;100147.44;;;21.64;100.00
26087;BME280;13851;43.434;28.338;2022-09-09T04:33:54;100154.97;;;21.64;100.00
26087;BME280;13851;43.434;28.338;2022-09-09T04:36:20;100164.53;;;21.68;100.00
26087;BME280;13851;43.434;28.338;2022-09-09T04:38:47;100147.53;;;21.69;100.00
26087;BME280;13851;43.434;28.338;2022-09-09T04:41:14;100151.53;;;21.73;100.00
26087;BME280;13851;43.434;28.338;2022-09-09T04:43:40;100165.44;;;21.85;100.00
26087;BME280;13851;43.434;28.338;2022-09-09T04:46:06;100170.53;;;21.88;100.00
26087;BME280;13851;43.434;28.338;2022-09-09T04:48:32;100175.94;;;21.95;100.00
26087;BME280;13851;43.434;28.338;2022-09-09T04:51:00;100174.16;;;21.89;100.00
26087;BME280;13851;43.434;28.338;2022-09-09T04:53:26;100173.16;;;21.95;100.00
26087;BME280;13851;43.434;28.338;2022-09-09T04:56:04;100174.34;;;21.99;100.00
26087;BME280;13851;43.434;28.338;2022-09-09T04:58:30;100142.28;;;21.85;100.00
26087;BME280;13851;43.434;28.338;2022-09-09T05:01:06;100166.03;;;22.16;100.00
26087;BME280;13851;43.434;28.338;2022-09-09T05:03:32;100169.28;;;22.24;100.00
26087;BME280;13851;43.434;28.338;2022-09-09T05:06:23;100147.13;;;22.18;100.00
26087;BME280;13851;43.434;28.338;2022-09-09T05:08:48;100169.63;;;22.28;100.00
26087;BME280;13851;43.434;28.338;2022-09-09T05:11:18;100166.22;;;22.26;100.00
26087;BME280;13851;43.434;28.338;2022-09-09T05:13:44;100158.28;;;22.18;100.00
26087;BME280;13851;43.434;28.338;2022-09-09T05:16:11;100124.75;;;22.01;100.00
26087;BME280;13851;43.434;28.338;2022-09-09T05:18:38;100134.53;;;22.03;100.00
26087;BME280;13851;43.434;28.338;2022-09-09T05:21:04;100177.75;;;22.29;100.00
26087;BME280;13851;43.434;28.338;2022-09-09T05:23:30;100101.72;;;21.94;100.00
26087;BME280;13851;43.434;28.338;2022-09-09T05:25:57;100151.53;;;22.30;100.00
26087;BME280;13851;43.434;28.338;2022-09-09T05:28:24;100153.19;;;22.31;100.00
26087;BME280;13851;43.434;28.338;2022-09-09T05:31:00;100153.13;;;22.26;100.00
26087;BME280;13851;43.434;28.338;2022-09-09T05:33:29;100140.13;;;22.32;100.00
26087;BME280;13851;43.434;28.338;2022-09-09T05:36:06;100148.25;;;22.34;100.00
26087;BME280;13851;43.434;28.338;2022-09-09T05:38:34;100172.34;;;22.40;100.00
26087;BME280;13851;43.434;28.338;2022-09-09T05:41:00;100117.84;;;22.20;100.00
26087;BME280;13851;43.434;28.338;2022-09-09T05:43:27;100160.25;;;22.51;100.00
26087;BME280;13851;43.434;28.338;2022-09-09T05:46:08;100147.78;;;22.42;100.00
26087;BME280;13851;43.434;28.338;2022-09-09T05:48:36;100139.09;;;22.38;100.00
26087;BME280;13851;43.434;28.338;2022-09-09T05:51:03;100167.03;;;22.55;100.00
26087;BME280;13851;43.434;28.338;2022-09-09T05:53:30;100158.91;;;22.53;100.00
26087;BME280;13851;43.434;28.338;2022-09-09T05:56:06;100173.19;;;22.57;100.00
26087;BME280;13851;43.434;28.338;2022-09-09T05:58:33;100142.13;;;22.37;100.00
26087;BME280;13851;43.434;28.338;2022-09-09T06:01:01;100121.47;;;22.21;100.00
26087;BME280;13851;43.434;28.338;2022-09-09T06:03:27;100175.91;;;22.52;100.00
26087;BME280;13851;43.434;28.338;2022-09-09T06:06:03;100175.72;;;22.42;100.00
26087;BME280;13851;43.434;28.338;2022-09-09T06:08:33;100158.47;;;22.28;100.00
26087;BME280;13851;43.434;28.338;2022-09-09T06:11:03;99982.38;;;21.34;100.00
26087;BME280;13851;43.434;28.338;2022-09-09T06:13:30;100011.25;;;21.56;100.00
26087;BME280;13851;43.434;28.338;2022-09-09T06:15:56;100160.00;;;22.52;100.00
26087;BME280;13851;43.434;28.338;2022-09-09T06:18:22;100178.53;;;22.75;100.00
26087;BME280;13851;43.434;28.338;2022-09-09T06:21:01;100174.91;;;22.75;100.00
26087;BME280;13851;43.434;28.338;2022-09-09T06:23:30;100142.75;;;22.39;100.00
26087;BME280;13851;43.434;28.338;2022-09-09T06:26:07;100171.59;;;22.61;100.00
26087;BME280;13851;43.434;28.338;2022-09-09T06:28:35;100158.72;;;22.43;100.00
26087;BME280;13851;43.434;28.338;2022-09-09T06:31:03;100149.66;;;22.70;100.00
26087;BME280;13851;43.434;28.338;2022-09-09T06:33:37;100165.59;;;22.52;100.00
26087;BME280;13851;43.434;28.338;2022-09-09T06:36:12;100176.31;;;22.61;100.00
26087;BME280;13851;43.434;28.338;2022-09-09T06:38:38;100194.53;;;22.63;100.00
26087;BME280;13851;43.434;28.338;2022-09-09T06:41:04;100203.91;;;22.57;100.00
26087;BME280;13851;43.434;28.338;2022-09-09T06:43:31;100202.13;;;22.51;100.00
26087;BME280;13851;43.434;28.338;2022-09-09T06:46:01;100178.28;;;22.60;100.00
26087;BME280;13851;43.434;28.338;2022-09-09T06:48:28;100197.59;;;22.78;100.00
26087;BME280;13851;43.434;28.338;2022-09-09T06:51:21;100185.97;;;22.87;100.00
26087;BME280;13851;43.434;28.338;2022-09-09T06:53:50;100031.06;;;21.88;100.00
26087;BME280;13851;43.434;28.338;2022-09-09T06:56:26;100215.41;;;22.77;100.00
26087;BME280;13851;43.434;28.338;2022-09-09T06:58:54;100207.47;;;22.69;100.00
26087;BME280;13851;43.434;28.338;2022-09-09T07:01:25;100202.16;;;22.84;100.00
26087;BME280;13851;43.434;28.338;2022-09-09T07:03:52;100210.19;;;22.98;100.00
26087;BME280;13851;43.434;28.338;2022-09-09T07:06:23;100042.22;;;21.88;100.00
26087;BME280;13851;43.434;28.338;2022-09-09T07:08:54;100195.00;;;22.89;100.00
26087;BME280;13851;43.434;28.338;2022-09-09T07:11:21;100213.88;;;22.98;100.00
26087;BME280;13851;43.434;28.338;2022-09-09T07:13:47;100215.94;;;23.08;100.00
26087;BME280;13851;43.434;28.338;2022-09-09T07:16:16;100200.03;;;22.92;100.00
26087;BME280;13851;43.434;28.338;2022-09-09T07:18:42;100199.81;;;22.93;100.00
26087;BME280;13851;43.434;28.338;2022-09-09T07:21:13;100205.78;;;23.19;100.00
26087;BME280;13851;43.434;28.338;2022-09-09T07:23:39;100042.44;;;22.32;100.00
26087;BME280;13851;43.434;28.338;2022-09-09T07:26:15;100199.28;;;22.96;100.00
26087;BME280;13851;43.434;28.338;2022-09-09T07:28:41;100233.47;;;23.20;100.00
26087;BME280;13851;43.434;28.338;2022-09-09T07:31:13;100202.47;;;23.22;100.00
26087;BME280;13851;43.434;28.338;2022-09-09T07:33:41;100224.72;;;23.33;100.00
26087;BME280;13851;43.434;28.338;2022-09-09T07:36:09;100218.31;;;23.55;100.00
26087;BME280;13851;43.434;28.338;2022-09-09T07:38:46;100186.81;;;23.21;100.00
26087;BME280;13851;43.434;28.338;2022-09-09T07:41:21;100186.06;;;23.08;100.00
26087;BME280;13851;43.434;28.338;2022-09-09T07:43:49;100194.13;;;23.05;100.00
26087;BME280;13851;43.434;28.338;2022-09-09T07:46:16;100204.88;;;22.96;100.00
26087;BME280;13851;43.434;28.338;2022-09-09T07:48:47;100217.41;;;22.94;100.00
26087;BME280;13851;43.434;28.338;2022-09-09T07:51:19;100182.72;;;22.90;100.00
26087;BME280;13851;43.434;28.338;2022-09-09T07:53:45;100189.09;;;23.07;100.00
26087;BME280;13851;43.434;28.338;2022-09-09T07:56:16;100149.84;;;22.97;100.00
26087;BME280;13851;43.434;28.338;2022-09-09T07:58:44;100231.19;;;23.56;100.00
26087;BME280;13851;43.434;28.338;2022-09-09T08:03:56;100230.84;;;23.69;100.00
26087;BME280;13851;43.434;28.338;2022-09-09T08:06:24;100199.53;;;23.50;100.00
26087;BME280;13851;43.434;28.338;2022-09-09T08:08:51;100200.91;;;23.70;100.00
26087;BME280;13851;43.434;28.338;2022-09-09T08:11:17;100021.09;;;22.43;100.00
26087;BME280;13851;43.434;28.338;2022-09-09T08:13:43;100168.81;;;23.55;100.00
26087;BME280;13851;43.434;28.338;2022-09-09T08:16:17;100196.25;;;23.75;100.00
26087;BME280;13851;43.434;28.338;2022-09-09T08:18:43;100173.31;;;23.78;100.00
26087;BME280;13851;43.434;28.338;2022-09-09T08:21:36;100189.78;;;23.97;100.00
26087;BME280;13851;43.434;28.338;2022-09-09T08:24:03;100204.88;;;23.96;100.00
26087;BME280;13851;43.434;28.338;2022-09-09T08:26:41;100211.31;;;23.96;100.00
26087;BME280;13851;43.434;28.338;2022-09-09T08:29:10;100214.44;;;23.78;100.00
26087;BME280;13851;43.434;28.338;2022-09-09T08:31:56;100218.13;;;23.61;100.00
26087;BME280;13851;43.434;28.338;2022-09-09T08:34:23;100218.97;;;23.62;100.00
26087;BME280;13851;43.434;28.338;2022-09-09T08:36:50;100224.44;;;23.52;100.00
26087;BME280;13851;43.434;28.338;2022-09-09T08:39:19;100193.16;;;23.55;100.00
26087;BME280;13851;43.434;28.338;2022-09-09T08:47:01;100214.84;;;23.48;100.00
26087;BME280;13851;43.434;28.338;2022-09-09T08:57:44;100207.84;;;23.89;100.00
26087;BME280;13851;43.434;28.338;2022-09-09T09:00:11;100169.41;;;23.35;100.00
26087;BME280;13851;43.434;28.338;2022-09-09T09:05:23;100200.22;;;23.63;100.00
26087;BME280;13851;43.434;28.338;2022-09-09T09:10:46;100020.28;;;22.64;100.00
26087;BME280;13851;43.434;28.338;2022-09-09T09:13:34;100193.88;;;23.67;100.00
26087;BME280;13851;43.434;28.338;2022-09-09T09:18:58;100190.84;;;23.91;100.00
26087;BME280;13851;43.434;28.338;2022-09-09T09:21:42;100202.03;;;23.91;100.00
26087;BME280;13851;43.434;28.338;2022-09-09T09:29:59;100172.34;;;23.68;100.00
26087;BME280;13851;43.434;28.338;2022-09-09T09:32:28;100208.03;;;23.60;100.00
26087;BME280;13851;43.434;28.338;2022-09-09T09:34:57;100206.25;;;23.54;100.00
26087;BME280;13851;43.434;28.338;2022-09-09T09:37:30;100190.28;;;23.50;100.00
26087;BME280;13851;43.434;28.338;2022-09-09T09:40:11;100197.78;;;23.44;100.00
26087;BME280;13851;43.434;28.338;2022-09-09T09:42:38;100214.28;;;23.46;100.00
26087;BME280;13851;43.434;28.338;2022-09-09T09:48:05;100214.09;;;23.74;100.00
26087;BME280;13851;43.434;28.338;2022-09-09T09:50:33;100148.78;;;23.42;100.00
26087;BME280;13851;43.434;28.338;2022-09-09T09:53:02;100237.66;;;23.78;100.00
26087;BME280;13851;43.434;28.338;2022-09-09T09:55:33;100240.16;;;23.58;100.00
26087;BME280;13851;43.434;28.338;2022-09-09T09:58:04;100231.56;;;23.81;100.00
26087;BME280;13851;43.434;28.338;2022-09-09T10:00:33;100223.22;;;23.86;100.00
26087;BME280;13851;43.434;28.338;2022-09-09T10:03:17;100223.16;;;23.81;100.00
26087;BME280;13851;43.434;28.338;2022-09-09T10:05:45;100009.16;;;22.47;100.00
26087;BME280;13851;43.434;28.338;2022-09-09T10:08:14;100215.44;;;23.67;100.00
26087;BME280;13851;43.434;28.338;2022-09-09T10:19:18;100183.56;;;23.95;100.00
26087;BME280;13851;43.434;28.338;2022-09-09T10:22:27;100174.31;;;24.16;100.00
26087;BME280;13851;43.434;28.338;2022-09-09T10:27:46;100216.13;;;24.01;100.00
26087;BME280;13851;43.434;28.338;2022-09-09T10:30:19;100185.53;;;24.43;100.00
26087;BME280;13851;43.434;28.338;2022-09-09T10:32:49;100153.91;;;24.48;100.00
26087;BME280;13851;43.434;28.338;2022-09-09T10:38:17;100176.31;;;25.17;100.00
26087;BME280;13851;43.434;28.338;2022-09-09T10:46:26;100166.81;;;24.49;100.00
26087;BME280;13851;43.434;28.338;2022-09-09T10:49:20;100161.69;;;24.41;100.00
26087;BME280;13851;43.434;28.338;2022-09-09T10:52:11;100016.41;;;23.58;100.00
26087;BME280;13851;43.434;28.338;2022-09-09T10:55:00;100173.47;;;24.43;100.00
26087;BME280;13851;43.434;28.338;2022-09-09T10:57:33;100152.72;;;24.38;100.00
26087;BME280;13851;43.434;28.338;2022-09-09T11:00:42;100153.50;;;24.66;100.00
26087;BME280;13851;43.434;28.338;2022-09-09T11:03:14;100165.97;;;24.85;100.00
26087;BME280;13851;43.434;28.338;2022-09-09T11:06:00;100161.09;;;25.08;100.00
26087;BME280;13851;43.434;28.338;2022-09-09T11:08:31;100154.91;;;25.06;100.00
26087;BME280;13851;43.434;28.338;2022-09-09T11:19:39;100154.38;;;24.72;100.00
26087;BME280;13851;43.434;28.338;2022-09-09T11:22:14;100134.47;;;24.68;100.00
26087;BME280;13851;43.434;28.338;2022-09-09T11:24:47;100129.19;;;24.77;100.00
26087;BME280;13851;43.434;28.338;2022-09-09T11:27:26;100151.38;;;24.78;100.00
26087;BME280;13851;43.434;28.338;2022-09-09T11:40:39;100166.50;;;25.14;100.00
26087;BME280;13851;43.434;28.338;2022-09-09T11:43:10;100159.81;;;24.83;100.00
26087;BME280;13851;43.434;28.338;2022-09-09T11:45:39;100127.28;;;24.77;100.00
26087;BME280;13851;43.434;28.338;2022-09-09T11:48:22;100142.47;;;24.54;100.00
26087;BME280;13851;43.434;28.338;2022-09-09T11:50:58;100113.00;;;24.42;100.00
26087;BME280;13851;43.434;28.338;2022-09-09T11:53:25;100143.97;;;24.35;100.00
26087;BME280;13851;43.434;28.338;2022-09-09T11:56:10;100146.16;;;24.60;100.00
26087;BME280;13851;43.434;28.338;2022-09-09T11:58:41;99975.72;;;23.67;100.00
26087;BME280;13851;43.434;28.338;2022-09-09T12:01:37;100155.31;;;24.50;100.00
26087;BME280;13851;43.434;28.338;2022-09-09T12:07:00;100096.03;;;24.26;100.00
26087;BME280;13851;43.434;28.338;2022-09-09T12:12:27;100133.53;;;24.52;100.00
26087;BME280;13851;43.434;28.338;2022-09-09T12:15:18;100121.69;;;24.45;100.00
26087;BME280;13851;43.434;28.338;2022-09-09T12:17:51;100120.06;;;24.54;100.00
26087;BME280;13851;43.434;28.338;2022-09-09T12:24:07;100120.50;;;24.73;100.00
26087;BME280;13851;43.434;28.338;2022-09-09T12:31:15;100132.63;;;24.84;100.00
26087;BME280;13851;43.434;28.338;2022-09-09T12:33:45;100088.88;;;24.78;100.00
26087;BME280;13851;43.434;28.338;2022-09-09T12:36:16;100105.13;;;24.81;100.00
26087;BME280;13851;43.434;28.338;2022-09-09T12:38:43;100100.56;;;25.12;100.00
26087;BME280;13851;43.434;28.338;2022-09-09T12:41:24;99663.13;;;22.63;100.00
26087;BME280;13851;43.434;28.338;2022-09-09T12:43:50;100096.16;;;25.21;100.00
26087;BME280;13851;43.434;28.338;2022-09-09T12:46:41;100111.28;;;25.20;100.00
26087;BME280;13851;43.434;28.338;2022-09-09T12:52:01;100116.06;;;24.82;100.00
26087;BME280;13851;43.434;28.338;2022-09-09T12:54:31;100127.28;;;24.77;100.00
26087;BME280;13851;43.434;28.338;2022-09-09T12:56:57;100094.06;;;24.00;100.00
26087;BME280;13851;43.434;28.338;2022-09-09T12:59:25;100101.59;;;24.21;100.00
26087;BME280;13851;43.434;28.338;2022-09-09T13:01:56;100102.84;;;24.35;100.00
26087;BME280;13851;43.434;28.338;2022-09-09T13:04:22;100060.19;;;24.28;100.00
26087;BME280;13851;43.434;28.338;2022-09-09T13:06:48;100075.16;;;24.39;100.00
26087;BME280;13851;43.434;28.338;2022-09-09T13:09:14;100103.78;;;24.51;100.00
26087;BME280;13851;43.434;28.338;2022-09-09T13:11:47;100075.13;;;24.07;100.00
26087;BME280;13851;43.434;28.338;2022-09-09T13:14:29;100089.25;;;24.22;100.00
26087;BME280;13851;43.434;28.338;2022-09-09T13:17:01;100122.88;;;24.54;100.00
26087;BME280;13851;43.434;28.338;2022-09-09T13:19:35;100102.59;;;24.79;100.00
26087;BME280;13851;43.434;28.338;2022-09-09T13:22:14;100092.16;;;25.07;100.00
26087;BME280;13851;43.434;28.338;2022-09-09T13:24:45;100112.50;;;24.97;100.00
26087;BME280;13851;43.434;28.338;2022-09-09T13:29:57;100086.53;;;24.64;100.00
26087;BME280;13851;43.434;28.338;2022-09-09T13:32:24;100055.91;;;24.48;100.00
26087;BME280;13851;43.434;28.338;2022-09-09T13:35:00;100094.66;;;24.66;100.00
26087;BME280;13851;43.434;28.338;2022-09-09T13:37:35;100092.59;;;24.88;100.00
26087;BME280;13851;43.434;28.338;2022-09-09T13:40:03;100090.56;;;24.79;100.00
26087;BME280;13851;43.434;28.338;2022-09-09T13:42:32;100083.41;;;24.61;100.00
26087;BME280;13851;43.434;28.338;2022-09-09T13:45:00;100070.44;;;24.45;100.00
26087;BME280;13851;43.434;28.338;2022-09-09T13:47:33;99896.53;;;23.34;100.00
26087;BME280;13851;43.434;28.338;2022-09-09T13:50:30;99887.50;;;23.27;100.00
26087;BME280;13851;43.434;28.338;2022-09-09T13:52:57;100072.75;;;24.26;100.00
26087;BME280;13851;43.434;28.338;2022-09-09T13:55:26;100090.09;;;24.55;100.00
26087;BME280;13851;43.434;28.338;2022-09-09T13:57:55;100079.91;;;24.81;100.00
26087;BME280;13851;43.434;28.338;2022-09-09T14:00:22;100067.50;;;25.09;100.00
26087;BME280;13851;43.434;28.338;2022-09-09T14:02:50;99937.84;;;24.29;100.00
26087;BME280;13851;43.434;28.338;2022-09-09T14:05:16;100042.63;;;24.75;100.00
26087;BME280;13851;43.434;28.338;2022-09-09T14:07:43;100091.19;;;24.91;100.00
26087;BME280;13851;43.434;28.338;2022-09-09T14:10:09;100032.59;;;24.84;100.00
26087;BME280;13851;43.434;28.338;2022-09-09T14:12:36;100052.69;;;25.19;100.00
26087;BME280;13851;43.434;28.338;2022-09-09T14:15:05;100031.34;;;25.18;100.00
26087;BME280;13851;43.434;28.338;2022-09-09T14:17:32;100000.84;;;25.31;100.00
26087;BME280;13851;43.434;28.338;2022-09-09T14:19:58;100021.94;;;25.44;100.00
26087;BME280;13851;43.434;28.338;2022-09-09T14:22:24;100039.88;;;25.53;100.00
26087;BME280;13851;43.434;28.338;2022-09-09T14:24:51;100060.34;;;25.54;100.00
26087;BME280;13851;43.434;28.338;2022-09-09T14:27:16;100035.69;;;25.61;100.00
26087;BME280;13851;43.434;28.338;2022-09-09T14:29:44;100058.91;;;25.36;100.00
26087;BME280;13851;43.434;28.338;2022-09-09T14:32:10;100054.66;;;25.23;100.00
26087;BME280;13851;43.434;28.338;2022-09-09T14:34:36;100014.34;;;25.39;100.00
26087;BME280;13851;43.434;28.338;2022-09-09T14:37:02;100033.19;;;25.54;100.00
26087;BME280;13851;43.434;28.338;2022-09-09T14:39:27;100032.88;;;25.46;100.00
26087;BME280;13851;43.434;28.338;2022-09-09T14:41:53;100037.16;;;25.84;100.00
26087;BME280;13851;43.434;28.338;2022-09-09T14:44:18;100031.25;;;25.70;100.00
26087;BME280;13851;43.434;28.338;2022-09-09T14:50:17;100034.63;;;25.77;100.00
26087;BME280;13851;43.434;28.338;2022-09-09T14:52:43;100044.22;;;26.07;100.00
26087;BME280;13851;43.434;28.338;2022-09-09T14:55:09;100040.28;;;26.13;100.00
26087;BME280;13851;43.434;28.338;2022-09-09T14:57:35;100039.97;;;25.84;100.00
26087;BME280;13851;43.434;28.338;2022-09-09T15:00:03;100015.38;;;25.23;100.00